Richmond, Vermont
Current Conditions -  °F | °C
As of 5:54 PM on Thursday 18 Dec 2014 (Local Time) from KBTV Reporting Station
Light Snow Light Snow  
Wind Chill: 25°   Ceiling: 2200
Heat Index: 32°   Visibility: 9mi
Dew Point: 24°   Wind: 8mph
Humidity: 73%   Direction: 310°NW
Pressure: 29.91"   Gusts: NA
Location:  44.41°N, 72.99°W
Report Text: KBTV 182254Z 31007KT 9SM -SN OVC022 00/M04 A2991 RMK AO2 SNB14 SLP133 P0000 T00001044
Loading
Personal Weather Stations






























Interactive Weather Map New forecast layout! Learn more

10-Day Weather Forecast

Advertisements
Track Severe Weather on mobile